Time;durP1;ratioP1;P1;durP2;ratioP2;P2;SDS_P1;SDS_P2;PMS_P1;PMS_P2;Temp;Humidity;BMP_temperature;BMP_pressure;BME280_temperature;BME280_humidity;BME280_pressure;Samples;Min_cycle;Max_cycle;Signal;HPM_P1;HPM_P2
2021/12/18 00:00:53;;;;;;;;;29.80;27.80;;;;;;;;5205125;28;9468;-65
2021/12/18 00:03:24;;;;;;;;;31.60;31.00;;;;;;;;5187769;28;8797;-65
2021/12/18 00:05:55;;;;;;;;;39.00;36.25;;;;;;;;5205248;28;8831;-65
2021/12/18 00:08:26;;;;;;;;;36.00;33.25;;;;;;;;5204948;28;8813;-64
2021/12/18 00:10:57;;;;;;;;;36.60;34.40;;;;;;;;5187575;28;11512;-64
2021/12/18 00:13:28;;;;;;;;;29.60;29.60;;;;;;;;5187499;28;8790;-65
2021/12/18 00:15:59;;;;;;;;;29.25;27.50;;;;;;;;5205380;28;8809;-65
2021/12/18 00:18:51;;;;;;;;;35.20;32.00;;;;;;;;5205817;28;8884;-64
2021/12/18 00:21:23;;;;;;;;;27.80;27.60;;;;;;;;5188119;28;8805;-64
2021/12/18 00:23:53;;;;;;;;;28.00;27.60;;;;;;;;5187515;28;8847;-64
2021/12/18 00:26:24;;;;;;;;;28.00;24.00;;;;;;;;5205047;28;8821;-64
2021/12/18 00:28:55;;;;;;;;;29.50;26.00;;;;;;;;5209888;28;8825;-64
2021/12/18 00:31:26;;;;;;;;;32.50;25.50;;;;;;;;5211861;28;8832;-64
2021/12/18 00:33:57;;;;;;;;;30.00;27.75;;;;;;;;5211821;28;10393;-64
2021/12/18 00:36:27;;;;;;;;;30.00;28.50;;;;;;;;5212102;28;9339;-64
2021/12/18 00:38:59;;;;;;;;;25.00;25.00;;;;;;;;5212288;28;8837;-64
2021/12/18 00:44:01;;;;;;;;;28.00;28.00;;;;;;;;5211476;28;8809;-64
2021/12/18 00:46:35;;;;;;;;;21.40;21.20;;;;;;;;5178355;28;8817;-64
2021/12/18 00:49:07;;;;;;;;;7.60;7.60;;;;;;;;5177747;28;8932;-65
2021/12/18 00:51:39;;;;;;;;;16.20;16.20;;;;;;;;5194293;28;8809;-64
2021/12/18 00:54:11;;;;;;;;;18.40;16.80;;;;;;;;5177561;28;8797;-65
2021/12/18 00:56:42;;;;;;;;;25.00;23.60;;;;;;;;5193621;28;8817;-64
2021/12/18 00:59:14;;;;;;;;;18.50;17.25;;;;;;;;5211606;28;8798;-64
2021/12/18 01:01:46;;;;;;;;;23.20;23.20;;;;;;;;5193729;28;11566;-64
2021/12/18 01:04:18;;;;;;;;;17.20;17.20;;;;;;;;5193803;28;8794;-65
2021/12/18 01:07:08;;;;;;;;;24.80;24.20;;;;;;;;5180213;28;8797;-65
2021/12/18 01:12:36;;;;;;;;;19.40;18.80;;;;;;;;5211543;28;8843;-65
2021/12/18 01:23:22;;;;;;;;;11.80;11.00;;;;;;;;5194130;28;8793;-65
2021/12/18 01:25:53;;;;;;;;;13.00;12.00;;;;;;;;5212193;28;8789;-65
2021/12/18 01:28:26;;;;;;;;;22.20;20.80;;;;;;;;5193519;28;8804;-65
2021/12/18 01:30:58;;;;;;;;;18.40;18.40;;;;;;;;5211341;28;8774;-65
2021/12/18 01:33:29;;;;;;;;;23.00;21.80;;;;;;;;5193408;28;8812;-65
2021/12/18 01:36:01;;;;;;;;;17.00;16.20;;;;;;;;5210904;28;9552;-65
2021/12/18 01:38:32;;;;;;;;;21.20;20.00;;;;;;;;5193806;28;8840;-65
2021/12/18 01:41:04;;;;;;;;;18.80;18.80;;;;;;;;5190450;28;8781;-64
2021/12/18 01:51:14;;;;;;;;;20.80;20.00;;;;;;;;5208603;28;8933;-65
2021/12/18 01:52:32;;;;;;;;;22.00;21.20;;;;;;;;5190121;28;8813;-65
2021/12/18 01:55:04;;;;;;;;;20.20;19.40;;;;;;;;5174003;28;8773;-65
2021/12/18 01:57:35;;;;;;;;;25.00;20.00;;;;;;;;5190037;28;8828;-65
2021/12/18 02:00:17;;;;;;;;;20.80;18.20;;;;;;;;5189798;28;8781;-65
2021/12/18 02:02:51;;;;;;;;;19.00;18.40;;;;;;;;5207699;28;8766;-64
2021/12/18 02:05:22;;;;;;;;;10.75;9.50;;;;;;;;5207624;28;8839;-64
2021/12/18 02:07:53;;;;;;;;;19.80;19.80;;;;;;;;5173963;28;8798;-64
2021/12/18 02:10:28;;;;;;;;;21.75;19.50;;;;;;;;5190648;28;8805;-65
2021/12/18 02:13:22;;;;;;;;;17.00;16.00;;;;;;;;5190240;28;8762;-65
2021/12/18 02:21:33;;;;;;;;;18.20;17.40;;;;;;;;5206847;28;8829;-65
2021/12/18 02:24:04;;;;;;;;;21.80;21.80;;;;;;;;5189238;28;8812;-64
2021/12/18 02:26:35;;;;;;;;;19.75;19.00;;;;;;;;5207734;28;8814;-64
2021/12/18 02:29:10;;;;;;;;;21.25;20.25;;;;;;;;5207070;28;11540;-64
2021/12/18 02:31:42;;;;;;;;;15.60;15.60;;;;;;;;5173381;28;8786;-64
2021/12/18 02:34:18;;;;;;;;;15.80;13.00;;;;;;;;5207488;28;8813;-65
2021/12/18 02:36:50;;;;;;;;;18.80;18.00;;;;;;;;5189562;28;8817;-65
2021/12/18 02:39:35;;;;;;;;;22.20;20.40;;;;;;;;5207440;28;8841;-64
2021/12/18 02:42:12;;;;;;;;;16.60;15.80;;;;;;;;5189640;28;8868;-64
2021/12/18 02:45:03;;;;;;;;;20.60;20.60;;;;;;;;5191905;28;8864;-64
2021/12/18 02:47:34;;;;;;;;;22.60;18.40;;;;;;;;5173201;28;8797;-64
2021/12/18 02:50:05;;;;;;;;;21.75;21.75;;;;;;;;5206474;28;8789;-63
2021/12/18 02:52:36;;;;;;;;;20.80;20.00;;;;;;;;5205808;28;8820;-64
2021/12/18 02:55:07;;;;;;;;;21.00;21.00;;;;;;;;5206379;28;8814;-64
2021/12/18 02:57:56;;;;;;;;;15.20;15.20;;;;;;;;5206541;28;11555;-64
2021/12/18 03:00:29;;;;;;;;;20.25;18.25;;;;;;;;5188612;28;9474;-64
2021/12/18 03:03:06;;;;;;;;;16.20;16.20;;;;;;;;5172698;28;9467;-64
2021/12/18 03:05:45;;;;;;;;;19.00;19.00;;;;;;;;5189355;28;8871;-63
2021/12/18 03:08:31;;;;;;;;;17.60;17.20;;;;;;;;5188319;28;8915;-64
2021/12/18 03:27:23;;;;;;;;;27.20;27.00;;;;;;;;5188739;28;8825;-65
2021/12/18 03:29:55;;;;;;;;;26.80;25.60;;;;;;;;5205647;28;8919;-65
2021/12/18 03:32:26;;;;;;;;;25.00;23.20;;;;;;;;5206401;28;8823;-65
2021/12/18 03:35:16;;;;;;;;;21.00;21.00;;;;;;;;5205873;28;8860;-64
2021/12/18 03:37:48;;;;;;;;;13.40;13.40;;;;;;;;5167990;28;8830;-64
2021/12/18 03:40:21;;;;;;;;;25.80;25.80;;;;;;;;5183974;28;8783;-64
2021/12/18 03:42:52;;;;;;;;;15.20;14.80;;;;;;;;5185213;28;8819;-64
2021/12/18 03:45:23;;;;;;;;;21.50;21.50;;;;;;;;5183760;28;8803;-65
2021/12/18 03:47:54;;;;;;;;;23.00;19.25;;;;;;;;5184978;28;9582;-65
2021/12/18 03:50:24;;;;;;;;;20.00;18.00;;;;;;;;5185444;28;8791;-65
2021/12/18 03:52:56;;;;;;;;;13.25;13.25;;;;;;;;5185198;28;8787;-65
2021/12/18 03:55:27;;;;;;;;;22.20;19.40;;;;;;;;5185361;28;8771;-64
2021/12/18 03:57:58;;;;;;;;;20.25;20.25;;;;;;;;5184808;28;9499;-65
2021/12/18 04:00:28;;;;;;;;;20.75;19.75;;;;;;;;5183842;28;8783;-65
2021/12/18 04:02:59;;;;;;;;;15.75;15.25;;;;;;;;5184393;28;8799;-64
2021/12/18 04:05:30;;;;;;;;;16.50;16.25;;;;;;;;5184614;28;8799;-64
2021/12/18 04:08:08;;;;;;;;;16.25;16.25;;;;;;;;5184009;28;8795;-65
2021/12/18 04:10:40;;;;;;;;;22.60;22.20;;;;;;;;5183311;28;8802;-65
2021/12/18 04:13:11;;;;;;;;;26.40;26.40;;;;;;;;5167773;28;8791;-65
2021/12/18 04:15:42;;;;;;;;;30.25;26.00;;;;;;;;5184714;28;9568;-65
2021/12/18 04:18:13;;;;;;;;;27.40;23.80;;;;;;;;5184569;28;8823;-65
2021/12/18 04:21:03;;;;;;;;;41.80;40.20;;;;;;;;5184918;28;8838;-66
2021/12/18 04:23:34;;;;;;;;;31.20;31.00;;;;;;;;5183252;28;8775;-65
2021/12/18 04:26:05;;;;;;;;;64.00;54.00;;;;;;;;5184984;28;8853;-65
2021/12/18 04:28:36;;;;;;;;;61.50;52.00;;;;;;;;5184607;28;8775;-65
2021/12/18 04:31:07;;;;;;;;;48.50;42.00;;;;;;;;5183433;28;8849;-65
2021/12/18 04:33:37;;;;;;;;;53.75;44.75;;;;;;;;5184314;28;8819;-65
2021/12/18 04:36:09;;;;;;;;;41.75;39.50;;;;;;;;5185064;28;8888;-65
2021/12/18 04:38:40;;;;;;;;;28.80;27.40;;;;;;;;5198813;28;8798;-65
2021/12/18 04:41:12;;;;;;;;;19.40;19.40;;;;;;;;5204687;28;8879;-65
2021/12/18 04:43:43;;;;;;;;;19.60;19.60;;;;;;;;5187497;28;8798;-65
2021/12/18 04:46:14;;;;;;;;;14.25;14.25;;;;;;;;5205170;28;8836;-65
2021/12/18 04:48:45;;;;;;;;;13.20;12.20;;;;;;;;5204748;28;9491;-65
2021/12/18 04:51:15;;;;;;;;;17.75;16.75;;;;;;;;5204577;28;8793;-65
2021/12/18 04:53:47;;;;;;;;;16.00;16.00;;;;;;;;5205036;28;8880;-65
2021/12/18 04:56:18;;;;;;;;;11.25;11.25;;;;;;;;5204726;28;8971;-65
2021/12/18 04:58:49;;;;;;;;;24.60;22.20;;;;;;;;5187400;28;11468;-65
2021/12/18 05:01:20;;;;;;;;;24.25;23.25;;;;;;;;5187528;28;8782;-65
2021/12/18 05:03:51;;;;;;;;;36.20;34.40;;;;;;;;5204387;28;9087;-65
2021/12/18 05:06:22;;;;;;;;;57.40;48.80;;;;;;;;5204978;28;8877;-64
2021/12/18 05:08:53;;;;;;;;;36.00;33.25;;;;;;;;5204879;28;8786;-64
2021/12/18 05:11:24;;;;;;;;;26.00;26.00;;;;;;;;5204786;28;11551;-65
2021/12/18 05:13:55;;;;;;;;;29.00;24.80;;;;;;;;5170954;28;8790;-64
2021/12/18 05:16:27;;;;;;;;;27.20;26.60;;;;;;;;5190061;28;8811;-65
2021/12/18 05:18:58;;;;;;;;;29.40;28.80;;;;;;;;5208506;28;8808;-65
2021/12/18 05:21:29;;;;;;;;;15.20;14.80;;;;;;;;5174868;28;8821;-65
2021/12/18 05:24:00;;;;;;;;;83.25;64.00;;;;;;;;5190492;28;8801;-66
2021/12/18 05:26:31;;;;;;;;;69.75;55.50;;;;;;;;5190765;28;8890;-65
2021/12/18 05:29:02;;;;;;;;;45.40;38.60;;;;;;;;5207944;28;10260;-65
2021/12/18 05:35:56;;;;;;;;;94.00;65.80;;;;;;;;5207856;28;9432;-66
2021/12/18 05:38:27;;;;;;;;;84.25;63.50;;;;;;;;5208221;28;8825;-66
2021/12/18 05:40:58;;;;;;;;;105.40;83.60;;;;;;;;5190833;28;8809;-66
2021/12/18 05:43:29;;;;;;;;;110.75;80.50;;;;;;;;5218747;28;8807;-66
2021/12/18 05:46:00;;;;;;;;;99.00;72.25;;;;;;;;5228662;28;8787;-66
2021/12/18 05:48:31;;;;;;;;;86.50;60.25;;;;;;;;5210735;28;8791;-65
2021/12/18 05:51:05;;;;;;;;;72.50;56.75;;;;;;;;5228440;28;8783;-65
2021/12/18 05:53:36;;;;;;;;;76.60;62.20;;;;;;;;5198343;28;8786;-65
2021/12/18 05:56:07;;;;;;;;;64.25;49.50;;;;;;;;5207658;28;8840;-66
2021/12/18 05:58:38;;;;;;;;;77.25;61.75;;;;;;;;5189763;28;8801;-65
2021/12/18 06:01:08;;;;;;;;;78.75;60.25;;;;;;;;5189830;28;8809;-66
2021/12/18 06:03:58;;;;;;;;;84.40;66.80;;;;;;;;5206859;28;11520;-66
2021/12/18 06:06:47;;;;;;;;;70.40;56.40;;;;;;;;5207585;28;8828;-65
2021/12/18 06:09:18;;;;;;;;;46.50;41.25;;;;;;;;5189810;28;8801;-65
2021/12/18 06:11:49;;;;;;;;;46.75;42.50;;;;;;;;5207966;28;11055;-65
2021/12/18 06:14:38;;;;;;;;;34.00;33.00;;;;;;;;5207718;28;8785;-65
2021/12/18 06:17:09;;;;;;;;;28.25;25.25;;;;;;;;5207613;28;8821;-66
2021/12/18 06:24:05;;;;;;;;;43.40;38.20;;;;;;;;5208059;28;8749;-66
2021/12/18 06:26:36;;;;;;;;;50.50;42.50;;;;;;;;5208144;28;8805;-65
2021/12/18 06:29:07;;;;;;;;;69.25;55.50;;;;;;;;5208240;28;8804;-66
2021/12/18 06:31:39;;;;;;;;;75.00;61.00;;;;;;;;5208789;28;8789;-66
2021/12/18 06:34:12;;;;;;;;;68.00;53.80;;;;;;;;5190619;28;8792;-67
2021/12/18 06:36:44;;;;;;;;;66.80;53.20;;;;;;;;5173563;28;8898;-66
2021/12/18 06:39:15;;;;;;;;;52.00;46.00;;;;;;;;5207723;28;8836;-66
2021/12/18 06:41:46;;;;;;;;;36.00;34.50;;;;;;;;5207437;28;9433;-65
2021/12/18 06:44:17;;;;;;;;;37.75;36.50;;;;;;;;5206957;28;8809;-66
2021/12/18 06:46:48;;;;;;;;;36.50;27.00;;;;;;;;5189345;28;9414;-65
2021/12/18 06:49:19;;;;;;;;;29.60;25.60;;;;;;;;5206465;28;8804;-65
2021/12/18 06:51:50;;;;;;;;;20.00;20.00;;;;;;;;5206365;28;8797;-66
2021/12/18 06:54:21;;;;;;;;;32.20;29.00;;;;;;;;5206362;28;10310;-66
2021/12/18 06:56:52;;;;;;;;;39.20;36.20;;;;;;;;5189223;28;8959;-65
2021/12/18 06:59:23;;;;;;;;;29.75;27.50;;;;;;;;5188836;28;8935;-66
2021/12/18 07:02:13;;;;;;;;;32.20;27.20;;;;;;;;5206262;28;10734;-65
2021/12/18 07:04:44;;;;;;;;;34.75;33.50;;;;;;;;5206186;28;9485;-66
2021/12/18 07:07:15;;;;;;;;;39.80;39.40;;;;;;;;5188583;28;8817;-66
2021/12/18 07:09:46;;;;;;;;;41.50;37.00;;;;;;;;5206249;28;8805;-66
2021/12/18 07:12:17;;;;;;;;;35.00;35.00;;;;;;;;5206854;28;8919;-65
2021/12/18 07:15:07;;;;;;;;;26.40;23.80;;;;;;;;5206293;28;8804;-65
2021/12/18 07:17:39;;;;;;;;;37.60;37.00;;;;;;;;5172273;28;8821;-65
2021/12/18 07:20:11;;;;;;;;;38.20;38.00;;;;;;;;5188643;28;8814;-65
2021/12/18 07:22:42;;;;;;;;;0.00;0.00;;;;;;;;5188598;28;8793;-66
2021/12/18 07:25:13;;;;;;;;;46.25;42.50;;;;;;;;5206589;28;8785;-66
2021/12/18 07:27:44;;;;;;;;;51.50;44.00;;;;;;;;5205709;28;8808;-66
2021/12/18 07:30:16;;;;;;;;;65.60;51.80;;;;;;;;5188243;28;8887;-66
2021/12/18 07:32:47;;;;;;;;;59.20;49.60;;;;;;;;5171857;28;8782;-66
2021/12/18 07:35:18;;;;;;;;;56.00;44.75;;;;;;;;5205771;28;8863;-65
2021/12/18 07:37:49;;;;;;;;;61.25;49.00;;;;;;;;5205231;28;8822;-65
2021/12/18 07:40:20;;;;;;;;;50.00;44.40;;;;;;;;5188011;28;8761;-66
2021/12/18 07:42:51;;;;;;;;;43.50;41.25;;;;;;;;5205494;28;8855;-66
2021/12/18 07:45:22;;;;;;;;;48.00;43.20;;;;;;;;5171477;28;8807;-65
2021/12/18 07:47:53;;;;;;;;;34.75;34.00;;;;;;;;5187842;28;8801;-65
2021/12/18 07:50:24;;;;;;;;;42.50;41.00;;;;;;;;5205625;28;9844;-65
2021/12/18 07:52:55;;;;;;;;;40.40;37.00;;;;;;;;5187830;28;10819;-65
2021/12/18 07:55:28;;;;;;;;;42.60;41.20;;;;;;;;5205723;28;9410;-65
2021/12/18 07:57:59;;;;;;;;;46.00;43.40;;;;;;;;5187970;28;8813;-67
2021/12/18 08:00:30;;;;;;;;;29.00;27.00;;;;;;;;5171248;28;8809;-64
2021/12/18 08:03:01;;;;;;;;;35.20;34.40;;;;;;;;5188101;28;8801;-64
2021/12/18 08:05:32;;;;;;;;;34.50;34.00;;;;;;;;5205618;28;9192;-64
2021/12/18 08:08:03;;;;;;;;;48.25;39.50;;;;;;;;5205181;28;8913;-65
2021/12/18 08:10:52;;;;;;;;;53.20;46.40;;;;;;;;5205129;28;11537;-64
2021/12/18 08:13:23;;;;;;;;;60.50;51.00;;;;;;;;5205998;28;8801;-65
2021/12/18 08:15:54;;;;;;;;;36.00;32.75;;;;;;;;5204688;28;9514;-65
2021/12/18 08:18:25;;;;;;;;;43.20;40.80;;;;;;;;5171008;28;9524;-65
2021/12/18 08:20:56;;;;;;;;;53.60;48.80;;;;;;;;5171159;28;8813;-65
2021/12/18 08:23:27;;;;;;;;;57.50;50.50;;;;;;;;5204963;28;9488;-65
2021/12/18 08:25:58;;;;;;;;;50.00;43.60;;;;;;;;5187493;28;8885;-65
2021/12/18 08:28:29;;;;;;;;;35.25;32.75;;;;;;;;5205458;28;8810;-65
2021/12/18 08:31:00;;;;;;;;;44.00;38.60;;;;;;;;5205466;28;8794;-65
2021/12/18 08:33:31;;;;;;;;;26.75;26.75;;;;;;;;5205107;28;8801;-65
2021/12/18 08:36:02;;;;;;;;;37.75;35.75;;;;;;;;5204751;28;11515;-65
2021/12/18 08:38:34;;;;;;;;;43.60;40.80;;;;;;;;5170743;28;9011;-64
2021/12/18 08:41:05;;;;;;;;;55.60;47.80;;;;;;;;5187118;28;9560;-65
2021/12/18 08:43:36;;;;;;;;;45.50;43.00;;;;;;;;5187149;28;8867;-64
2021/12/18 08:46:07;;;;;;;;;41.50;40.25;;;;;;;;5186994;28;9585;-64
2021/12/18 08:48:38;;;;;;;;;36.25;36.25;;;;;;;;5204874;28;9781;-65
2021/12/18 08:51:11;;;;;;;;;31.60;28.40;;;;;;;;5191766;28;11555;-64
2021/12/18 08:53:42;;;;;;;;;47.50;44.25;;;;;;;;5209204;28;8805;-64
2021/12/18 08:56:13;;;;;;;;;38.50;37.25;;;;;;;;5208674;28;10865;-64
2021/12/18 08:58:44;;;;;;;;;6.75;6.75;;;;;;;;5175199;28;8801;-65
2021/12/18 09:01:14;;;;;;;;;26.25;25.75;;;;;;;;5191203;28;9828;-65
2021/12/18 09:03:45;;;;;;;;;51.25;43.00;;;;;;;;5208622;28;12321;-65
2021/12/18 09:06:16;;;;;;;;;28.00;26.25;;;;;;;;5208902;28;8813;-64
2021/12/18 09:08:48;;;;;;;;;28.20;28.20;;;;;;;;5174544;28;8813;-64
2021/12/18 09:11:19;;;;;;;;;42.20;38.80;;;;;;;;5174440;28;9520;-64
2021/12/18 09:13:50;;;;;;;;;28.40;23.60;;;;;;;;5174487;28;8802;-63
2021/12/18 09:16:21;;;;;;;;;33.80;31.00;;;;;;;;5207989;28;8859;-64
2021/12/18 09:18:52;;;;;;;;;31.40;29.40;;;;;;;;5190695;28;8817;-64
2021/12/18 09:21:23;;;;;;;;;28.00;23.00;;;;;;;;5208614;28;8963;-65
2021/12/18 09:23:54;;;;;;;;;27.20;26.40;;;;;;;;5208922;28;8800;-65
2021/12/18 09:26:25;;;;;;;;;30.00;30.00;;;;;;;;5208820;28;8789;-65
2021/12/18 09:28:56;;;;;;;;;36.00;33.40;;;;;;;;5174726;28;8786;-64
2021/12/18 09:31:27;;;;;;;;;56.00;45.40;;;;;;;;5174524;28;9631;-65
2021/12/18 09:33:58;;;;;;;;;73.50;55.50;;;;;;;;5207818;28;8912;-65
2021/12/18 09:36:29;;;;;;;;;51.00;44.80;;;;;;;;5173860;28;8979;-64
2021/12/18 09:39:01;;;;;;;;;53.20;46.00;;;;;;;;5208527;28;8813;-65
2021/12/18 09:41:32;;;;;;;;;29.00;27.80;;;;;;;;5174554;28;8929;-65
2021/12/18 09:44:04;;;;;;;;;30.60;29.80;;;;;;;;5173730;28;8821;-64
2021/12/18 09:46:34;;;;;;;;;25.20;23.60;;;;;;;;5208296;28;8777;-64
2021/12/18 09:49:06;;;;;;;;;16.60;16.60;;;;;;;;5174024;28;8802;-64
2021/12/18 09:51:37;;;;;;;;;34.00;33.20;;;;;;;;5174324;28;9500;-65
2021/12/18 09:54:27;;;;;;;;;27.80;25.60;;;;;;;;5192923;28;8798;-64
2021/12/18 09:56:58;;;;;;;;;31.60;31.00;;;;;;;;5173654;28;8813;-64
2021/12/18 09:59:47;;;;;;;;;25.20;24.80;;;;;;;;5190637;28;8797;-65
2021/12/18 10:02:18;;;;;;;;;24.75;23.50;;;;;;;;5172859;28;8770;-64
2021/12/18 10:04:49;;;;;;;;;23.75;22.50;;;;;;;;5207735;28;11544;-65
2021/12/18 10:07:21;;;;;;;;;21.50;21.50;;;;;;;;5189893;28;8839;-64
2021/12/18 10:10:10;;;;;;;;;8.80;8.80;;;;;;;;5192710;28;8786;-63
2021/12/18 10:12:41;;;;;;;;;22.00;22.00;;;;;;;;5173451;28;8801;-66
2021/12/18 10:15:16;;;;;;;;;25.75;24.75;;;;;;;;5207959;28;8857;-64
2021/12/18 10:18:09;;;;;;;;;13.60;12.80;;;;;;;;5192735;28;8808;-65
2021/12/18 10:20:40;;;;;;;;;10.40;10.40;;;;;;;;5173866;28;8867;-64
2021/12/18 10:23:11;;;;;;;;;14.00;14.00;;;;;;;;5208057;28;8880;-65
2021/12/18 10:25:42;;;;;;;;;15.25;15.25;;;;;;;;5206962;28;8824;-64
2021/12/18 10:28:19;;;;;;;;;7.80;7.80;;;;;;;;5173200;28;8822;-65
2021/12/18 10:30:53;;;;;;;;;89.80;70.60;;;;;;;;5173035;28;8801;-65
2021/12/18 10:33:28;;;;;;;;;11.60;11.40;;;;;;;;5173542;28;8825;-65
2021/12/18 10:36:00;;;;;;;;;11.40;11.40;;;;;;;;5173303;28;8786;-65
2021/12/18 10:38:50;;;;;;;;;37.00;36.40;;;;;;;;5172736;28;8844;-65
2021/12/18 10:41:27;;;;;;;;;22.60;19.40;;;;;;;;5189679;28;8805;-65
2021/12/18 10:44:04;;;;;;;;;35.40;34.80;;;;;;;;5207104;28;8936;-66
2021/12/18 10:46:53;;;;;;;;;18.80;18.80;;;;;;;;5192054;28;8896;-65
2021/12/18 10:49:38;;;;;;;;;9.50;9.50;;;;;;;;5207118;28;8932;-65
2021/12/18 10:52:08;;;;;;;;;20.80;20.20;;;;;;;;5173380;28;8840;-65
2021/12/18 10:54:39;;;;;;;;;20.50;20.50;;;;;;;;5189859;28;8805;-65
2021/12/18 10:57:20;;;;;;;;;27.00;25.50;;;;;;;;5206884;28;8821;-65
2021/12/18 10:59:53;;;;;;;;;54.40;47.20;;;;;;;;5189617;28;8951;-65
2021/12/18 11:02:26;;;;;;;;;21.40;20.80;;;;;;;;5172557;28;8817;-65
2021/12/18 11:05:18;;;;;;;;;21.60;20.80;;;;;;;;5206335;28;8789;-65
2021/12/18 11:08:06;;;;;;;;;21.60;21.40;;;;;;;;5207123;28;8812;-64
2021/12/18 11:10:53;;;;;;;;;45.60;38.80;;;;;;;;5206615;28;8915;-65
2021/12/18 11:13:43;;;;;;;;;39.20;38.00;;;;;;;;5171604;28;8874;-65
2021/12/18 11:16:13;;;;;;;;;42.80;37.20;;;;;;;;5206301;28;8894;-65
2021/12/18 11:18:45;;;;;;;;;26.00;23.50;;;;;;;;5172292;28;8814;-65
2021/12/18 11:21:17;;;;;;;;;34.60;34.20;;;;;;;;5172314;28;8786;-65
2021/12/18 11:23:50;;;;;;;;;31.20;29.80;;;;;;;;5172010;28;8805;-65
2021/12/18 11:26:23;;;;;;;;;46.40;42.40;;;;;;;;5172177;28;8789;-65
2021/12/18 11:28:54;;;;;;;;;37.60;32.00;;;;;;;;5172457;28;8805;-65
2021/12/18 11:31:26;;;;;;;;;48.00;45.25;;;;;;;;5172669;28;8867;-65
2021/12/18 11:33:57;;;;;;;;;29.80;29.20;;;;;;;;5171935;28;12216;-65
2021/12/18 11:36:28;;;;;;;;;49.50;47.00;;;;;;;;5205904;28;8840;-65
2021/12/18 11:38:59;;;;;;;;;58.60;51.40;;;;;;;;5171696;28;8817;-65
2021/12/18 11:41:31;;;;;;;;;37.00;35.80;;;;;;;;5171866;28;8793;-65
2021/12/18 11:44:22;;;;;;;;;50.00;45.80;;;;;;;;5171909;28;8804;-65
2021/12/18 11:47:31;;;;;;;;;27.60;27.60;;;;;;;;5190761;28;8836;-63
2021/12/18 11:50:22;;;;;;;;;49.00;43.20;;;;;;;;5197742;28;8866;-63
2021/12/18 11:52:53;;;;;;;;;46.40;42.20;;;;;;;;5198174;28;8867;-65
2021/12/18 11:55:25;;;;;;;;;33.25;33.25;;;;;;;;5188049;28;8900;-65
2021/12/18 11:58:16;;;;;;;;;28.60;28.60;;;;;;;;5190764;28;8870;-65
2021/12/18 12:00:49;;;;;;;;;59.60;52.20;;;;;;;;5205428;28;8805;-65
2021/12/18 12:03:30;;;;;;;;;49.80;46.60;;;;;;;;5187517;28;8790;-65
2021/12/18 12:06:03;;;;;;;;;40.20;40.20;;;;;;;;5171459;28;9003;-65
2021/12/18 12:08:40;;;;;;;;;33.80;33.20;;;;;;;;5205645;28;8801;-65
2021/12/18 12:11:21;;;;;;;;;31.20;30.60;;;;;;;;5205630;28;8778;-64
2021/12/18 12:13:51;;;;;;;;;11.00;11.00;;;;;;;;5206179;28;8911;-64
2021/12/18 12:16:44;;;;;;;;;33.00;31.20;;;;;;;;5191137;28;8797;-64
2021/12/18 12:19:19;;;;;;;;;24.20;20.60;;;;;;;;5187725;28;8851;-64
2021/12/18 12:21:52;;;;;;;;;24.60;24.20;;;;;;;;5171452;28;8856;-64
2021/12/18 12:24:25;;;;;;;;;25.60;25.60;;;;;;;;5171819;28;8828;-64
2021/12/18 12:27:24;;;;;;;;;30.60;30.40;;;;;;;;5205499;28;8817;-64
2021/12/18 12:29:56;;;;;;;;;16.00;14.80;;;;;;;;5188248;28;9445;-65
2021/12/18 12:32:29;;;;;;;;;26.00;25.20;;;;;;;;5171039;28;8883;-65
2021/12/18 12:35:10;;;;;;;;;36.60;35.00;;;;;;;;5188210;28;9487;-65
2021/12/18 12:37:43;;;;;;;;;45.80;42.80;;;;;;;;5207386;28;8845;-66
2021/12/18 12:44:24;;;;;;;;;32.60;26.00;;;;;;;;5225175;28;8837;-65
2021/12/18 12:47:13;;;;;;;;;38.40;37.20;;;;;;;;5208875;28;8787;-66
2021/12/18 12:50:12;;;;;;;;;27.40;27.20;;;;;;;;5207512;28;8844;-66
2021/12/18 12:52:50;;;;;;;;;42.20;40.60;;;;;;;;5190990;28;8794;-66
2021/12/18 12:55:43;;;;;;;;;31.80;31.00;;;;;;;;5225411;28;8873;-66
2021/12/18 12:58:16;;;;;;;;;32.00;30.80;;;;;;;;5190788;28;9448;-65
2021/12/18 13:00:48;;;;;;;;;30.00;29.00;;;;;;;;5224918;28;8790;-66
2021/12/18 13:03:24;;;;;;;;;38.80;35.80;;;;;;;;5207352;28;8859;-66
2021/12/18 13:06:00;;;;;;;;;28.60;28.00;;;;;;;;5207656;28;8844;-66
2021/12/18 13:08:33;;;;;;;;;48.40;46.00;;;;;;;;5191447;28;8795;-66
2021/12/18 13:11:04;;;;;;;;;40.80;40.00;;;;;;;;5190932;28;8819;-65
2021/12/18 13:13:36;;;;;;;;;44.60;43.40;;;;;;;;5191006;28;8980;-65
2021/12/18 13:16:11;;;;;;;;;34.00;33.40;;;;;;;;5207033;28;8830;-66
2021/12/18 13:18:47;;;;;;;;;44.20;42.40;;;;;;;;5190556;28;8775;-66
2021/12/18 13:25:04;;;;;;;;;42.20;39.00;;;;;;;;5205146;28;8892;-66
2021/12/18 13:32:05;;;;;;;;;96.00;74.00;;;;;;;;5204272;28;8852;-66
2021/12/18 13:34:37;;;;;;;;;51.50;48.50;;;;;;;;5204987;28;8896;-66
2021/12/18 13:37:12;;;;;;;;;22.80;20.40;;;;;;;;5156300;28;11651;-66
2021/12/18 13:39:45;;;;;;;;;11.00;11.00;;;;;;;;5190261;28;8789;-66
2021/12/18 13:42:18;;;;;;;;;13.80;13.40;;;;;;;;5173538;28;8808;-66
2021/12/18 13:45:04;;;;;;;;;29.80;28.40;;;;;;;;5190297;28;8810;-66
2021/12/18 13:47:35;;;;;;;;;72.20;60.20;;;;;;;;5207551;28;8778;-67
2021/12/18 13:50:16;;;;;;;;;75.00;61.50;;;;;;;;5157403;28;8810;-66
2021/12/18 13:53:06;;;;;;;;;12.00;12.00;;;;;;;;5193052;28;8793;-66
2021/12/18 13:55:47;;;;;;;;;23.00;22.50;;;;;;;;5207572;28;8793;-67
2021/12/18 13:58:19;;;;;;;;;11.80;11.80;;;;;;;;5207731;28;10898;-66
2021/12/18 14:01:10;;;;;;;;;3.80;3.80;;;;;;;;5174122;28;8790;-67
2021/12/18 14:04:02;;;;;;;;;9.20;9.20;;;;;;;;5206993;28;8900;-68
2021/12/18 14:06:35;;;;;;;;;15.80;15.80;;;;;;;;5157551;28;8847;-67
2021/12/18 14:13:28;;;;;;;;;69.60;54.60;;;;;;;;5207152;28;9401;-67
2021/12/18 14:16:08;;;;;;;;;42.00;41.50;;;;;;;;5190315;28;8786;-66
2021/12/18 14:18:47;;;;;;;;;46.20;40.80;;;;;;;;5189645;28;9605;-67
2021/12/18 14:21:19;;;;;;;;;31.00;31.00;;;;;;;;5173673;28;8879;-67
2021/12/18 14:23:49;;;;;;;;;18.20;18.00;;;;;;;;5157428;28;8797;-66
2021/12/18 14:26:39;;;;;;;;;16.80;16.60;;;;;;;;5207499;28;8782;-66
2021/12/18 14:29:15;;;;;;;;;17.80;17.80;;;;;;;;5173655;28;8806;-67
2021/12/18 14:31:51;;;;;;;;;19.20;19.20;;;;;;;;5173242;28;8809;-67
2021/12/18 14:38:56;;;;;;;;;24.60;23.60;;;;;;;;5227581;28;8822;-68
2021/12/18 14:45:51;;;;;;;;;79.60;63.80;;;;;;;;5227146;28;8801;-66
2021/12/18 14:48:30;;;;;;;;;43.00;40.20;;;;;;;;5176449;28;8909;-67
2021/12/18 14:51:29;;;;;;;;;25.20;24.60;;;;;;;;5212676;28;8771;-67
2021/12/18 14:54:00;;;;;;;;;37.00;36.60;;;;;;;;5176800;28;8783;-66
2021/12/18 14:56:31;;;;;;;;;34.75;33.75;;;;;;;;5227168;28;8841;-67
2021/12/18 14:59:15;;;;;;;;;25.00;25.00;;;;;;;;5227391;28;12173;-67
2021/12/18 15:02:04;;;;;;;;;33.80;29.40;;;;;;;;5209489;28;8900;-66
2021/12/18 15:04:35;;;;;;;;;40.00;39.50;;;;;;;;5227043;28;8814;-67
2021/12/18 15:07:25;;;;;;;;;30.00;30.00;;;;;;;;5209645;28;11547;-66
2021/12/18 15:09:57;;;;;;;;;42.20;40.60;;;;;;;;5192332;28;8802;-67
2021/12/18 15:12:29;;;;;;;;;30.60;30.60;;;;;;;;5226182;28;8802;-68
2021/12/18 15:19:25;;;;;;;;;43.00;38.40;;;;;;;;5226374;28;8743;-67
2021/12/18 15:21:58;;;;;;;;;36.40;36.40;;;;;;;;5226978;28;8783;-66
2021/12/18 15:24:29;;;;;;;;;36.60;36.60;;;;;;;;5175653;28;8817;-67
2021/12/18 15:27:01;;;;;;;;;31.00;31.00;;;;;;;;5192267;28;8937;-67
2021/12/18 15:29:35;;;;;;;;;22.60;21.80;;;;;;;;5176063;28;8809;-67
2021/12/18 15:32:07;;;;;;;;;53.20;49.20;;;;;;;;5176267;28;9497;-67
2021/12/18 15:34:38;;;;;;;;;62.60;55.40;;;;;;;;5192158;28;8802;-66
2021/12/18 15:37:11;;;;;;;;;57.20;51.40;;;;;;;;5176147;28;8834;-66
2021/12/18 15:39:43;;;;;;;;;48.60;45.20;;;;;;;;5191731;28;8834;-66
2021/12/18 15:42:21;;;;;;;;;33.40;32.80;;;;;;;;5175930;28;8827;-66
2021/12/18 15:44:52;;;;;;;;;25.00;24.40;;;;;;;;5209426;28;8802;-65
2021/12/18 15:47:24;;;;;;;;;39.75;39.00;;;;;;;;5226281;28;8794;-67
2021/12/18 15:49:55;;;;;;;;;56.20;46.80;;;;;;;;5175367;28;8949;-67
2021/12/18 15:52:25;;;;;;;;;55.20;46.60;;;;;;;;5191884;28;8957;-66
2021/12/18 15:54:57;;;;;;;;;30.00;30.00;;;;;;;;5225766;28;9502;-67
2021/12/18 15:57:27;;;;;;;;;72.80;60.20;;;;;;;;5226143;28;8930;-67
2021/12/18 16:04:40;;;;;;;;;36.60;34.00;;;;;;;;5225828;28;8727;-66
2021/12/18 16:07:11;;;;;;;;;15.00;15.00;;;;;;;;5225696;28;8795;-67
2021/12/18 16:09:42;;;;;;;;;24.60;24.60;;;;;;;;5225645;28;10434;-66
2021/12/18 16:12:13;;;;;;;;;24.00;23.60;;;;;;;;5191639;28;8802;-66
2021/12/18 16:14:44;;;;;;;;;25.80;25.00;;;;;;;;5225626;28;8822;-67
2021/12/18 16:17:15;;;;;;;;;38.60;30.60;;;;;;;;5225829;28;8842;-67
2021/12/18 16:24:09;;;;;;;;;16.20;15.80;;;;;;;;5225494;28;11579;-67
2021/12/18 16:26:40;;;;;;;;;23.20;23.00;;;;;;;;5225115;28;9530;-67
2021/12/18 16:29:11;;;;;;;;;31.50;29.50;;;;;;;;5207979;28;8791;-67
2021/12/18 16:36:08;;;;;;;;;31.60;29.00;;;;;;;;5224831;28;8771;-67
2021/12/18 16:38:39;;;;;;;;;41.20;39.40;;;;;;;;5207884;28;8823;-66
2021/12/18 16:41:11;;;;;;;;;46.25;37.00;;;;;;;;5225339;28;8872;-66
2021/12/18 16:43:43;;;;;;;;;42.20;37.00;;;;;;;;5225102;28;11612;-67